Palos Hills, Illinois
Current Conditions -  °F | °C
As of 11:53 AM on Sunday 25 Jan 2015 (Local Time) from KMDW Reporting Station
Light Snow Light Snow  
Wind Chill: 22°   Ceiling: 700
Heat Index: 33°   Visibility: 1.5mi
Dew Point: 30°   Wind: 18mph
Humidity: 89%   Direction: 30°NNE
Pressure: 29.79"   Gusts: 24mph
Location:  41.7°N, 87.83°W
Report Text: KMDW 251753Z 03016G21KT 1 1/2SM -SN BR OVC007 01/M01 A2979 RMK AO2 PK WND 05028/1655 SLP097 P0001 60006 T00061011 10033 20006 51012
Loading
Personal Weather Stations






























Interactive Weather Map New forecast layout! Learn more

10-Day Weather Forecast

Advertisements
Track Severe Weather on mobile